Time;durP1;ratioP1;P1;durP2;ratioP2;P2;SDS_P1;SDS_P2;PMS_P1;PMS_P2;Temp;Humidity;BMP_temperature;BMP_pressure;BME280_temperature;BME280_humidity;BME280_pressure;Samples;Min_cycle;Max_cycle;Signal;HPM_P1;HPM_P2
2021/06/14 00:01:34;;;;;;;5.27;2.47;;;20.20;76.40;28.10;100291.00;;;;5066994;28;20901;-75
2021/06/14 00:03:59;;;;;;;5.23;2.80;;;20.20;76.50;27.90;100294.00;;;;5065945;28;20821;-75
2021/06/14 00:06:25;;;;;;;7.30;3.10;;;20.20;76.50;27.90;100291.00;;;;5049395;28;20573;-75
2021/06/14 00:08:51;;;;;;;5.90;2.90;;;20.20;76.60;27.80;100286.00;;;;5050959;28;20261;-75
2021/06/14 00:11:17;;;;;;;5.10;2.60;;;20.20;76.60;28.00;100271.00;;;;5068002;28;20580;-74
2021/06/14 00:13:43;;;;;;;5.43;2.93;;;20.20;76.60;27.90;100260.00;;;;5033166;28;20555;-73
2021/06/14 00:16:09;;;;;;;5.97;2.70;;;20.20;76.60;27.90;100275.00;;;;5067978;28;20784;-75
2021/06/14 00:18:35;;;;;;;5.33;2.80;;;20.20;76.60;27.90;100279.00;;;;5066632;28;20181;-75
2021/06/14 00:21:05;;;;;;;4.73;2.23;;;20.20;76.60;28.00;100284.00;;;;5082325;28;20535;-74
2021/06/14 00:23:31;;;;;;;4.60;2.40;;;20.10;76.60;27.90;100281.00;;;;5086913;28;20458;-73
2021/06/14 00:25:58;;;;;;;4.40;2.20;;;20.10;76.60;27.90;100261.00;;;;5086339;28;20571;-74
2021/06/14 00:28:24;;;;;;;5.87;2.90;;;20.10;76.60;27.90;100273.00;;;;5088058;28;20600;-73
2021/06/14 00:30:51;;;;;;;5.57;3.17;;;20.10;76.60;27.90;100276.00;;;;5090070;28;21202;-75
2021/06/14 00:33:17;;;;;;;4.60;2.70;;;20.10;76.70;27.70;100276.00;;;;5091110;28;20852;-74
2021/06/14 00:35:45;;;;;;;4.90;2.60;;;20.10;76.70;27.70;100272.00;;;;5089278;28;20871;-74
2021/06/14 00:38:12;;;;;;;5.40;2.90;;;20.10;76.70;27.90;100270.00;;;;5074272;28;20561;-75
2021/06/14 00:40:38;;;;;;;4.60;2.30;;;20.10;76.70;27.80;100269.00;;;;5073569;28;20446;-75
2021/06/14 00:43:05;;;;;;;4.33;2.40;;;20.10;76.80;27.80;100264.00;;;;5090351;28;20523;-74
2021/06/14 00:45:31;;;;;;;6.17;2.60;;;20.10;76.80;27.90;100267.00;;;;5089522;28;20919;-75
2021/06/14 00:48:02;;;;;;;4.50;2.70;;;20.10;76.80;27.70;100265.00;;;;5091763;28;20843;-74
2021/06/14 00:50:39;;;;;;;5.23;2.50;;;20.10;76.90;27.80;100273.00;;;;5072999;28;20438;-74
2021/06/14 00:53:07;;;;;;;4.97;2.80;;;20.10;76.90;27.80;100239.00;;;;5091138;28;20433;-74
2021/06/14 00:55:33;;;;;;;5.60;2.90;;;20.10;76.80;27.80;100262.00;;;;5091087;28;20940;-74
2021/06/14 00:57:59;;;;;;;6.30;2.90;;;20.00;76.80;27.80;100280.00;;;;5091189;28;20470;-74
2021/06/14 01:00:25;;;;;;;4.73;3.10;;;20.00;76.80;27.80;100270.00;;;;5090605;28;20431;-75
2021/06/14 01:02:50;;;;;;;4.50;2.50;;;20.10;77.00;27.70;100273.00;;;;5090743;28;20180;-74
2021/06/14 01:05:16;;;;;;;4.90;2.60;;;20.00;76.90;27.90;100276.00;;;;5091600;28;20259;-74
2021/06/14 01:07:42;;;;;;;4.20;2.23;;;20.10;77.00;27.60;100271.00;;;;5090551;28;20294;-74
2021/06/14 01:10:09;;;;;;;4.57;2.70;;;20.00;77.00;27.80;100272.00;;;;5091627;28;20446;-74
2021/06/14 01:12:38;;;;;;;5.40;2.37;;;20.00;76.90;27.70;100272.00;;;;5090569;28;20453;-74
2021/06/14 01:15:16;;;;;;;5.10;2.77;;;20.10;77.10;27.80;100266.00;;;;5090276;28;20441;-74
2021/06/14 01:17:59;;;;;;;5.73;2.90;;;20.00;77.00;27.60;100278.00;;;;5090451;28;20811;-75
2021/06/14 01:20:55;;;;;;;6.23;3.10;;;20.00;77.00;27.70;100272.00;;;;5089313;28;20523;-74
2021/06/14 01:23:46;;;;;;;5.17;2.90;;;20.00;77.00;27.50;100278.00;;;;5090423;28;20781;-75
2021/06/14 01:26:22;;;;;;;4.50;2.50;;;20.00;77.10;27.70;100247.00;;;;5091607;28;20482;-74
2021/06/14 01:28:58;;;;;;;4.30;2.50;;;20.00;77.10;27.60;100272.00;;;;5090075;28;20525;-74
2021/06/14 01:31:25;;;;;;;4.80;2.70;;;20.00;78.00;27.60;100265.00;;;;5090019;28;20462;-73
2021/06/14 01:33:51;;;;;;;5.13;3.00;;;20.00;77.20;27.70;100272.00;;;;5073695;28;20468;-75
2021/06/14 01:36:23;;;;;;;5.23;2.97;;;20.00;77.10;27.60;100270.00;;;;5090404;28;20454;-74
2021/06/14 01:38:49;;;;;;;6.13;2.77;;;20.00;77.20;27.60;100271.00;;;;5090344;28;20187;-73
2021/06/14 01:41:15;;;;;;;5.57;3.10;;;20.00;77.20;27.50;100273.00;;;;5089420;28;20458;-75
2021/06/14 01:43:41;;;;;;;5.73;3.00;;;20.00;78.10;27.50;100268.00;;;;5090407;28;20195;-74
2021/06/14 01:46:13;;;;;;;4.80;2.97;;;20.00;77.30;27.60;100264.00;;;;5089843;28;20208;-75
2021/06/14 01:48:39;;;;;;;6.70;3.10;;;19.90;77.20;27.50;100262.00;;;;5089972;28;20447;-74
2021/06/14 01:51:07;;;;;;;6.20;2.93;;;20.00;77.30;27.60;100257.00;;;;5090018;28;20513;-75
2021/06/14 01:53:33;;;;;;;5.33;2.97;;;19.90;77.20;27.60;100256.00;;;;5072903;28;20837;-73
2021/06/14 01:55:58;;;;;;;5.30;3.10;;;19.90;77.20;27.50;100253.00;;;;5072381;28;20553;-74
2021/06/14 01:58:24;;;;;;;5.00;2.83;;;19.90;77.30;27.60;100256.00;;;;5090221;28;20521;-73
2021/06/14 02:00:50;;;;;;;5.10;2.83;;;19.90;77.30;27.50;100254.00;;;;5089472;28;20287;-73
2021/06/14 02:03:16;;;;;;;5.30;2.83;;;19.90;77.30;27.50;100252.00;;;;5089920;28;20168;-73
2021/06/14 02:05:42;;;;;;;5.37;2.90;;;19.90;77.30;27.50;100246.00;;;;5088912;28;20285;-75
2021/06/14 02:08:08;;;;;;;5.70;2.90;;;19.90;77.30;27.50;100242.00;;;;5089601;28;20697;-74
2021/06/14 02:10:35;;;;;;;4.87;2.70;;;19.90;77.30;27.40;100239.00;;;;5089315;28;20487;-75
2021/06/14 02:13:02;;;;;;;6.73;3.17;;;19.90;77.40;27.50;100245.00;;;;5089643;28;20476;-74
2021/06/14 02:15:27;;;;;;;5.03;2.67;;;19.90;77.50;27.30;100247.00;;;;5089964;28;20847;-73
2021/06/14 02:17:55;;;;;;;7.13;3.20;;;19.90;77.50;27.40;100238.00;;;;5088950;28;20430;-73
2021/06/14 02:20:21;;;;;;;5.80;3.43;;;19.80;77.30;27.50;100240.00;;;;5089042;28;20296;-74
2021/06/14 02:22:47;;;;;;;5.07;2.87;;;19.80;77.30;27.50;100240.00;;;;5088820;28;20553;-72
2021/06/14 02:25:13;;;;;;;5.00;3.17;;;19.90;77.50;27.50;100239.00;;;;5089758;28;20350;-73
2021/06/14 02:27:39;;;;;;;5.97;3.17;;;19.80;77.30;27.30;100244.00;;;;5089228;28;20204;-74
2021/06/14 02:30:14;;;;;;;4.93;2.77;;;19.80;77.40;27.40;100236.00;;;;5089191;28;20430;-72
2021/06/14 02:32:40;;;;;;;4.50;2.77;;;19.80;78.30;27.40;100247.00;;;;5072530;28;20462;-73
2021/06/14 02:35:06;;;;;;;5.30;3.10;;;19.80;77.50;27.40;100242.00;;;;5089259;28;20916;-74
2021/06/14 02:37:33;;;;;;;5.20;2.93;;;19.80;77.50;27.30;100247.00;;;;5088596;28;20465;-74
2021/06/14 02:39:59;;;;;;;4.77;2.90;;;19.80;77.50;27.30;100251.00;;;;5089436;28;20533;-75
2021/06/14 02:42:25;;;;;;;5.40;3.23;;;19.80;77.50;27.20;100245.00;;;;5089121;28;20557;-75
2021/06/14 02:44:50;;;;;;;4.93;2.80;;;19.80;77.50;27.30;100241.00;;;;5088928;28;20204;-75
2021/06/14 02:47:17;;;;;;;5.03;2.60;;;19.80;77.50;27.40;100229.00;;;;5088487;28;20610;-75
2021/06/14 02:49:42;;;;;;;5.10;2.70;;;19.80;77.60;27.30;100246.00;;;;5088744;28;20673;-75
2021/06/14 02:52:11;;;;;;;5.40;3.20;;;19.80;77.60;27.50;100247.00;;;;5087954;28;20493;-75
2021/06/14 02:54:45;;;;;;;5.87;3.20;;;19.80;77.60;27.30;100245.00;;;;5089433;28;20793;-75
2021/06/14 02:57:12;;;;;;;6.67;2.87;;;19.80;77.50;27.30;100241.00;;;;5090165;28;20948;-75
2021/06/14 02:59:39;;;;;;;4.97;2.67;;;19.70;77.40;27.30;100242.00;;;;5088566;28;20488;-74
2021/06/14 03:02:05;;;;;;;5.10;2.80;;;19.70;77.40;27.30;100248.00;;;;5088490;28;20462;-75
2021/06/14 03:04:32;;;;;;;5.10;3.00;;;19.70;77.40;27.40;100243.00;;;;5088633;28;20473;-75
2021/06/14 03:06:58;;;;;;;4.63;2.73;;;19.70;77.40;27.30;100246.00;;;;5088167;28;20513;-74
2021/06/14 03:09:23;;;;;;;5.60;3.60;;;19.70;77.40;27.30;100247.00;;;;5089225;28;20931;-74
2021/06/14 03:11:51;;;;;;;5.17;3.03;;;19.70;77.40;27.10;100242.00;;;;5071062;28;20210;-74
2021/06/14 03:14:17;;;;;;;5.60;3.07;;;19.70;77.50;27.30;100234.00;;;;5072039;28;20214;-74
2021/06/14 03:16:43;;;;;;;5.83;2.80;;;19.70;77.50;27.40;100238.00;;;;5087858;28;21060;-74
2021/06/14 03:19:09;;;;;;;6.67;3.53;;;19.70;77.50;27.30;100239.00;;;;5072099;28;20442;-74
2021/06/14 03:21:35;;;;;;;6.00;2.63;;;19.70;77.50;27.10;100246.00;;;;5087937;28;20695;-74
2021/06/14 03:24:01;;;;;;;5.23;3.00;;;19.70;77.40;27.10;100229.00;;;;5088567;28;20726;-74
2021/06/14 03:26:36;;;;;;;6.00;3.43;;;19.70;77.50;27.20;100240.00;;;;5088448;28;20474;-74
2021/06/14 03:29:03;;;;;;;6.10;2.80;;;19.70;77.50;27.20;100245.00;;;;5089560;28;20190;-74
2021/06/14 03:31:29;;;;;;;5.53;3.10;;;19.70;77.50;27.20;100243.00;;;;5088329;28;20492;-74
2021/06/14 03:33:54;;;;;;;6.00;3.00;;;19.70;77.50;27.30;100256.00;;;;5071704;28;20471;-74
2021/06/14 03:36:21;;;;;;;5.27;2.93;;;19.70;77.50;27.20;100255.00;;;;5088709;28;20835;-74
2021/06/14 03:38:47;;;;;;;4.97;2.90;;;19.70;77.60;27.30;100257.00;;;;5087761;28;20539;-75
2021/06/14 03:41:14;;;;;;;5.30;3.10;;;19.70;78.40;27.50;100260.00;;;;5088199;28;20553;-74
2021/06/14 03:43:40;;;;;;;5.47;3.07;;;19.70;77.60;27.20;100252.00;;;;5088405;28;20503;-75
2021/06/14 03:46:06;;;;;;;5.43;2.87;;;19.60;77.50;27.40;100258.00;;;;5088030;28;20478;-75
2021/06/14 03:48:32;;;;;;;4.97;2.80;;;19.60;77.50;27.20;100272.00;;;;5087977;28;20430;-76
2021/06/14 03:50:58;;;;;;;5.27;3.03;;;19.70;77.60;27.30;100254.00;;;;5088218;28;20450;-76
2021/06/14 03:53:33;;;;;;;4.40;2.33;;;19.60;77.50;27.30;100266.00;;;;5088375;28;20654;-76
2021/06/14 03:56:05;;;;;;;5.50;3.00;;;19.60;77.50;27.20;100262.00;;;;5088342;28;20196;-76
2021/06/14 03:58:31;;;;;;;6.30;3.20;;;19.60;77.60;27.40;100258.00;;;;5088583;28;20434;-76
2021/06/14 04:00:58;;;;;;;5.47;2.97;;;19.60;77.60;27.10;100265.00;;;;5088386;28;20462;-76
2021/06/14 04:03:25;;;;;;;4.60;2.87;;;19.60;77.60;27.30;100268.00;;;;5088746;28;20443;-76
2021/06/14 04:05:51;;;;;;;7.70;2.90;;;19.60;77.60;27.20;100266.00;;;;5091671;28;20493;-76
2021/06/14 04:08:17;;;;;;;6.70;2.93;;;19.60;77.60;27.00;100264.00;;;;5092087;28;20427;-76
2021/06/14 04:10:42;;;;;;;5.70;3.37;;;19.60;77.60;27.30;100268.00;;;;5093009;28;20168;-76
2021/06/14 04:13:09;;;;;;;5.20;3.07;;;19.60;77.60;27.20;100266.00;;;;5091873;28;20430;-75
2021/06/14 04:15:35;;;;;;;5.47;3.30;;;19.60;77.60;27.20;100261.00;;;;5092218;28;20255;-75
2021/06/14 04:18:01;;;;;;;4.97;2.97;;;19.60;77.60;27.20;100267.00;;;;5091199;28;20434;-75
2021/06/14 04:20:27;;;;;;;4.90;2.87;;;19.60;77.60;27.20;100268.00;;;;5091595;28;20441;-75
2021/06/14 04:22:53;;;;;;;6.30;3.60;;;19.60;77.60;27.00;100259.00;;;;5091762;28;20533;-74
2021/06/14 04:25:19;;;;;;;4.80;2.70;;;19.60;77.70;27.20;100257.00;;;;5092032;28;20242;-73
2021/06/14 04:27:46;;;;;;;4.87;2.80;;;19.60;77.70;27.10;100255.00;;;;5091702;28;20208;-74
2021/06/14 04:30:16;;;;;;;6.10;3.13;;;19.60;77.70;27.00;100248.00;;;;5091784;28;20563;-73
2021/06/14 04:32:42;;;;;;;5.73;3.30;;;19.60;77.80;27.10;100240.00;;;;5075236;28;20446;-74
2021/06/14 04:35:09;;;;;;;5.67;2.90;;;19.60;77.80;27.10;100276.00;;;;5091705;28;20785;-73
2021/06/14 04:37:35;;;;;;;5.03;2.90;;;19.60;77.80;27.20;100273.00;;;;5074644;28;20454;-73
2021/06/14 04:40:01;;;;;;;6.07;3.13;;;19.50;77.70;27.20;100265.00;;;;5091868;28;20431;-72
2021/06/14 04:42:27;;;;;;;5.70;3.13;;;19.50;77.70;27.10;100275.00;;;;5091498;28;20863;-73
2021/06/14 04:44:53;;;;;;;5.20;2.90;;;19.50;77.80;26.90;100267.00;;;;5091077;28;20208;-74
2021/06/14 04:47:19;;;;;;;5.20;2.73;;;19.50;77.80;26.90;100277.00;;;;5091429;28;20971;-73
2021/06/14 04:49:45;;;;;;;5.40;2.87;;;19.50;77.80;27.00;100270.00;;;;5091071;28;20442;-73
2021/06/14 04:52:10;;;;;;;5.40;3.20;;;19.50;77.80;26.90;100276.00;;;;5091085;28;20541;-73
2021/06/14 04:54:36;;;;;;;5.90;2.90;;;19.50;77.80;27.00;100273.00;;;;5091038;28;20208;-73
2021/06/14 04:57:02;;;;;;;5.30;2.87;;;19.50;77.90;27.00;100275.00;;;;5092336;28;20196;-74
2021/06/14 04:59:28;;;;;;;5.37;3.10;;;19.50;77.80;27.00;100264.00;;;;5090654;28;20181;-73
2021/06/14 05:01:54;;;;;;;5.30;3.30;;;19.50;77.80;26.90;100267.00;;;;5090990;28;20457;-73
2021/06/14 05:04:19;;;;;;;4.80;2.70;;;19.50;77.90;26.90;100266.00;;;;5090828;28;20240;-73
2021/06/14 05:06:45;;;;;;;5.30;3.00;;;19.50;78.60;26.90;100259.00;;;;5091819;28;20578;-74
2021/06/14 05:09:11;;;;;;;5.60;3.03;;;19.50;77.90;27.00;100262.00;;;;5090323;28;20216;-73
2021/06/14 05:11:36;;;;;;;6.20;3.23;;;19.50;77.90;27.00;100252.00;;;;5092302;28;20203;-73
2021/06/14 05:14:02;;;;;;;5.97;2.93;;;19.50;77.90;26.90;100261.00;;;;5091703;28;20233;-73
2021/06/14 05:16:28;;;;;;;4.67;2.70;;;19.50;77.90;27.00;100255.00;;;;5092126;28;20201;-73
2021/06/14 05:18:54;;;;;;;5.00;3.23;;;19.50;77.90;27.00;100253.00;;;;5091909;28;20188;-73
2021/06/14 05:21:19;;;;;;;5.20;3.20;;;19.50;77.90;27.10;100260.00;;;;5090087;28;20294;-73
2021/06/14 05:23:45;;;;;;;5.77;2.97;;;19.50;77.90;27.10;100248.00;;;;5090236;28;20180;-74
2021/06/14 05:26:11;;;;;;;4.87;2.77;;;19.50;77.90;27.20;100256.00;;;;5090531;28;20212;-73
2021/06/14 05:28:36;;;;;;;5.13;3.20;;;19.50;78.00;27.10;100254.00;;;;5090442;28;20256;-71
2021/06/14 05:31:04;;;;;;;5.90;2.80;;;19.50;78.00;27.10;100265.00;;;;5090585;28;20201;-73
2021/06/14 05:33:29;;;;;;;4.93;2.93;;;19.50;78.00;27.20;100261.00;;;;5091242;28;20638;-73
2021/06/14 05:35:55;;;;;;;5.07;2.97;;;19.50;78.00;27.10;100245.00;;;;5091840;28;20461;-73
2021/06/14 05:38:21;;;;;;;6.17;3.00;;;19.50;78.00;27.10;100262.00;;;;5090096;28;20226;-73
2021/06/14 05:40:46;;;;;;;5.27;3.00;;;19.50;78.00;27.10;100263.00;;;;5091218;28;20228;-73
2021/06/14 05:43:12;;;;;;;4.90;2.63;;;19.50;78.00;27.30;100265.00;;;;5090470;28;20182;-73
2021/06/14 05:45:38;;;;;;;5.13;3.47;;;19.50;78.00;27.20;100270.00;;;;5089704;28;20209;-73
2021/06/14 05:48:05;;;;;;;4.87;2.70;;;19.50;78.00;27.10;100249.00;;;;5089904;28;20196;-73
2021/06/14 05:50:30;;;;;;;5.10;3.00;;;19.50;78.00;27.10;100272.00;;;;5089788;28;20192;-74
2021/06/14 05:52:56;;;;;;;7.07;3.47;;;19.50;78.10;27.20;100264.00;;;;5090160;28;20445;-73
2021/06/14 05:55:22;;;;;;;5.30;3.30;;;19.50;78.00;27.10;100269.00;;;;5089287;28;20188;-73
2021/06/14 05:57:48;;;;;;;5.70;3.17;;;19.50;78.10;27.10;100264.00;;;;5089890;28;20200;-74
2021/06/14 06:00:14;;;;;;;6.13;3.27;;;19.50;78.10;27.20;100264.00;;;;5089597;28;20925;-74
2021/06/14 06:02:40;;;;;;;5.70;3.07;;;19.50;78.10;27.10;100268.00;;;;5089605;28;20211;-73
2021/06/14 06:05:07;;;;;;;5.27;2.83;;;19.50;78.10;27.10;100261.00;;;;5080843;28;21145;-74
2021/06/14 06:07:34;;;;;;;6.27;2.70;;;19.50;78.10;27.10;100272.00;;;;5069814;28;20310;-74
2021/06/14 06:10:00;;;;;;;6.10;3.20;;;19.50;78.10;27.30;100268.00;;;;5069771;28;20942;-73
2021/06/14 06:12:25;;;;;;;5.30;3.27;;;19.50;78.10;27.30;100271.00;;;;5071416;28;20465;-74
2021/06/14 06:14:51;;;;;;;4.60;2.57;;;19.50;78.10;27.20;100268.00;;;;5088689;28;20643;-74
2021/06/14 06:17:17;;;;;;;5.23;3.03;;;19.50;78.10;27.20;100265.00;;;;5088526;28;20200;-73
2021/06/14 06:19:43;;;;;;;5.07;3.20;;;19.50;78.20;27.20;100268.00;;;;5088550;28;20180;-74
2021/06/14 06:22:08;;;;;;;5.03;3.10;;;19.50;78.20;27.30;100269.00;;;;5085855;28;20674;-73
2021/06/14 06:24:34;;;;;;;5.50;3.33;;;19.50;78.20;27.10;100273.00;;;;5069684;28;20276;-74
2021/06/14 06:27:00;;;;;;;6.03;3.27;;;19.50;78.20;27.10;100273.00;;;;5067412;28;20239;-73
2021/06/14 06:29:26;;;;;;;6.60;3.33;;;19.50;78.20;27.20;100273.00;;;;5067367;28;20182;-73
2021/06/14 06:31:52;;;;;;;6.30;3.70;;;19.50;78.30;27.00;100271.00;;;;5068714;28;20201;-74
2021/06/14 06:34:18;;;;;;;5.80;3.53;;;19.50;78.30;27.20;100273.00;;;;5051560;28;20443;-73
2021/06/14 06:36:43;;;;;;;5.20;2.90;;;19.50;78.30;27.00;100262.00;;;;5069840;28;20209;-74
2021/06/14 06:39:09;;;;;;;6.50;3.63;;;19.50;78.30;27.20;100265.00;;;;5052267;28;20188;-73
2021/06/14 06:41:35;;;;;;;5.23;3.40;;;19.50;78.30;27.20;100252.00;;;;5052126;28;20205;-74
2021/06/14 06:44:01;;;;;;;6.27;3.00;;;19.50;78.30;27.10;100267.00;;;;5068828;28;20181;-74
2021/06/14 06:46:26;;;;;;;5.87;3.70;;;19.50;78.30;27.20;100276.00;;;;5068538;28;20227;-73
2021/06/14 06:48:52;;;;;;;5.97;3.20;;;19.50;78.30;27.00;100252.00;;;;5070370;28;20196;-74
2021/06/14 06:51:18;;;;;;;6.20;3.23;;;19.50;78.30;27.20;100262.00;;;;5068025;28;20663;-74
2021/06/14 06:53:43;;;;;;;4.77;2.90;;;19.50;78.40;27.30;100256.00;;;;5070316;28;20548;-74
2021/06/14 06:56:09;;;;;;;5.20;3.10;;;19.50;78.40;27.00;100251.00;;;;5068633;28;20201;-74
2021/06/14 06:58:40;;;;;;;4.90;3.33;;;19.40;78.30;27.30;100259.00;;;;5068908;28;20174;-74
2021/06/14 07:01:05;;;;;;;5.20;3.10;;;19.40;78.30;27.30;100261.00;;;;5068493;28;20205;-73
2021/06/14 07:03:31;;;;;;;5.40;3.50;;;19.40;78.30;27.20;100254.00;;;;5085948;28;20681;-74
2021/06/14 07:05:57;;;;;;;5.80;3.40;;;19.40;78.30;27.20;100250.00;;;;5067501;28;20717;-73
2021/06/14 07:08:23;;;;;;;6.73;3.20;;;19.50;78.40;27.20;100246.00;;;;5052331;28;20176;-74
2021/06/14 07:10:49;;;;;;;6.30;3.40;;;19.40;78.30;27.20;100248.00;;;;5051852;28;20668;-73
2021/06/14 07:13:16;;;;;;;6.87;3.43;;;19.50;78.50;27.10;100257.00;;;;5065165;28;20451;-73
2021/06/14 07:15:42;;;;;;;5.13;3.20;;;19.50;78.40;27.10;100236.00;;;;5084359;28;20195;-74
2021/06/14 07:18:08;;;;;;;5.40;3.23;;;19.40;78.40;27.00;100234.00;;;;5068067;28;20454;-73
2021/06/14 07:20:34;;;;;;;5.60;3.23;;;19.50;78.50;27.20;100245.00;;;;5087484;28;20912;-74
2021/06/14 07:22:59;;;;;;;5.90;3.10;;;19.50;78.50;27.10;100245.00;;;;5088376;28;20585;-73
2021/06/14 07:25:25;;;;;;;5.30;3.30;;;19.50;78.50;27.20;100244.00;;;;5087295;28;20200;-74
2021/06/14 07:27:51;;;;;;;5.47;3.40;;;19.50;78.50;27.10;100238.00;;;;5087069;28;20208;-73
2021/06/14 07:30:19;;;;;;;5.20;2.97;;;19.50;78.50;27.10;100233.00;;;;5087670;28;20543;-74
2021/06/14 07:32:44;;;;;;;5.90;3.03;;;19.50;78.60;27.00;100230.00;;;;5068814;28;20545;-73
2021/06/14 07:35:11;;;;;;;6.37;3.23;;;19.50;78.60;27.10;100236.00;;;;5068925;28;20488;-74
2021/06/14 07:37:37;;;;;;;5.37;3.37;;;19.50;78.60;27.10;100241.00;;;;5068515;28;20209;-74
2021/06/14 07:40:05;;;;;;;6.07;3.33;;;19.50;78.60;27.00;100237.00;;;;5072236;28;20436;-73
2021/06/14 07:42:31;;;;;;;4.73;2.93;;;19.50;78.60;27.00;100236.00;;;;5071353;28;20512;-74
2021/06/14 07:44:57;;;;;;;6.80;4.23;;;19.50;78.60;27.00;100234.00;;;;5072051;28;20463;-73
2021/06/14 07:47:23;;;;;;;6.60;3.70;;;19.50;78.60;27.00;100243.00;;;;5071460;28;20228;-74
2021/06/14 07:49:48;;;;;;;4.87;3.00;;;19.50;78.60;27.00;100236.00;;;;5055519;28;20700;-73
2021/06/14 07:52:14;;;;;;;5.30;3.50;;;19.50;78.60;27.00;100235.00;;;;5072243;28;20674;-74
2021/06/14 07:54:40;;;;;;;5.87;3.47;;;19.50;78.60;26.90;100230.00;;;;5072624;28;20439;-74
2021/06/14 07:57:07;;;;;;;5.60;3.33;;;19.50;78.60;27.00;100228.00;;;;5072942;28;20388;-74
2021/06/14 07:59:34;;;;;;;6.23;3.23;;;19.50;78.70;26.80;100232.00;;;;5072511;28;20529;-74
2021/06/14 08:02:00;;;;;;;5.17;3.40;;;19.50;78.70;27.00;100232.00;;;;5054627;28;20471;-74
2021/06/14 08:04:27;;;;;;;7.00;3.77;;;19.50;78.70;27.00;100237.00;;;;5055315;28;21017;-74
2021/06/14 08:06:53;;;;;;;6.07;3.73;;;19.50;78.80;27.10;100246.00;;;;5071633;28;20467;-74
2021/06/14 08:09:25;;;;;;;6.20;3.00;;;19.50;78.60;26.90;100257.00;;;;5071012;28;20438;-74
2021/06/14 08:11:53;;;;;;;5.70;3.70;;;19.50;78.70;27.00;100243.00;;;;5072797;28;20201;-74
2021/06/14 08:14:19;;;;;;;5.40;3.40;;;19.50;78.80;27.10;100260.00;;;;5088646;28;20438;-73
2021/06/14 08:16:45;;;;;;;6.43;3.70;;;19.50;78.80;26.90;100233.00;;;;5071342;28;20467;-73
2021/06/14 08:19:48;;;;;;;5.00;2.90;;;19.50;78.80;27.10;100247.00;;;;5073161;28;20188;-73
2021/06/14 08:25:04;;;;;;;5.27;3.20;;;19.50;78.70;27.10;100244.00;;;;5072161;28;20462;-74
2021/06/14 08:27:48;;;;;;;6.07;3.53;;;19.50;78.80;27.10;100256.00;;;;5057071;28;20677;-74
2021/06/14 08:30:20;;;;;;;6.53;3.30;;;19.50;78.80;27.00;100218.00;;;;5072670;28;20443;-74
2021/06/14 08:32:47;;;;;;;5.93;3.60;;;19.50;78.80;27.10;100246.00;;;;5071682;28;20452;-73
2021/06/14 08:35:15;;;;;;;6.00;3.50;;;19.50;78.80;26.90;100240.00;;;;5071574;28;20454;-74
2021/06/14 08:37:45;;;;;;;6.07;3.27;;;19.50;78.80;27.30;100249.00;;;;5070911;28;20458;-74
2021/06/14 08:40:12;;;;;;;6.27;3.67;;;19.50;78.90;27.10;100247.00;;;;5054808;28;20442;-73
2021/06/14 08:42:38;;;;;;;5.10;3.27;;;19.50;78.90;27.20;100236.00;;;;5087773;28;20566;-74
2021/06/14 08:45:06;;;;;;;6.00;3.23;;;19.50;78.90;27.20;100235.00;;;;5071583;28;20823;-74
2021/06/14 08:47:32;;;;;;;5.50;3.47;;;19.50;78.90;27.20;100234.00;;;;5070937;28;20458;-74
2021/06/14 08:49:57;;;;;;;5.47;3.67;;;19.50;78.90;27.10;100234.00;;;;5069995;28;20813;-73
2021/06/14 08:52:24;;;;;;;6.07;3.90;;;19.50;78.80;27.20;100247.00;;;;5070752;28;20284;-74
2021/06/14 08:54:51;;;;;;;5.60;3.60;;;19.50;78.80;27.20;100233.00;;;;5071175;28;20444;-74
2021/06/14 08:57:17;;;;;;;6.10;3.30;;;19.50;78.90;27.30;100233.00;;;;5049975;28;20543;-74
2021/06/14 08:59:43;;;;;;;5.50;3.10;;;19.50;78.80;27.10;100232.00;;;;5070850;28;20435;-73
2021/06/14 09:02:09;;;;;;;5.50;3.40;;;19.50;78.80;27.20;100232.00;;;;5070457;28;20200;-75
2021/06/14 09:04:35;;;;;;;5.93;3.47;;;19.50;78.80;27.10;100231.00;;;;5069750;28;20485;-75
2021/06/14 09:07:01;;;;;;;4.70;3.10;;;19.50;78.80;27.40;100226.00;;;;5070313;28;20467;-75
2021/06/14 09:09:31;;;;;;;5.30;3.60;;;19.50;78.80;27.20;100224.00;;;;5070419;28;20312;-75
2021/06/14 09:11:59;;;;;;;5.90;3.30;;;19.50;78.80;27.30;100212.00;;;;5069071;28;20558;-75
2021/06/14 09:14:36;;;;;;;5.27;3.20;;;19.50;78.80;27.30;100219.00;;;;5070211;28;20439;-75
2021/06/14 09:17:14;;;;;;;4.90;3.10;;;19.50;78.90;27.40;100223.00;;;;5053620;28;20458;-75
2021/06/14 09:19:43;;;;;;;5.53;3.80;;;19.50;78.80;27.20;100213.00;;;;5069960;28;20772;-75
2021/06/14 09:22:16;;;;;;;5.83;3.40;;;19.50;78.80;27.40;100213.00;;;;5070960;28;20547;-75
2021/06/14 09:24:57;;;;;;;6.97;3.57;;;19.50;78.90;27.30;100205.00;;;;5070136;28;20451;-75
2021/06/14 09:27:34;;;;;;;4.80;3.00;;;19.50;78.80;27.30;100209.00;;;;5068675;28;20806;-75
2021/06/14 09:30:26;;;;;;;4.67;2.87;;;19.50;78.90;27.20;100204.00;;;;5070167;28;20475;-75
2021/06/14 09:33:00;;;;;;;5.70;3.90;;;19.50;78.90;27.30;100201.00;;;;5052971;28;21104;-75
2021/06/14 09:35:46;;;;;;;6.40;3.60;;;19.50;78.90;27.10;100195.00;;;;5070531;28;20436;-75
2021/06/14 09:38:17;;;;;;;6.47;3.37;;;19.50;78.90;27.30;100193.00;;;;5052295;28;20853;-75
2021/06/14 09:40:53;;;;;;;4.63;2.90;;;19.50;78.90;27.40;100201.00;;;;5069241;28;20439;-75
2021/06/14 09:43:38;;;;;;;6.13;3.33;;;19.50;78.90;27.20;100198.00;;;;5068134;28;20435;-75
2021/06/14 09:46:28;;;;;;;5.33;3.30;;;19.50;78.90;27.20;100191.00;;;;5053490;28;20825;-75
2021/06/14 09:48:54;;;;;;;5.47;3.30;;;19.50;78.90;27.40;100190.00;;;;5054933;28;21103;-75
2021/06/14 09:51:20;;;;;;;5.70;3.20;;;19.50;78.80;27.40;100183.00;;;;5052053;28;20824;-75
2021/06/14 09:53:49;;;;;;;5.00;3.33;;;19.50;78.90;27.40;100177.00;;;;5067833;28;20427;-74
2021/06/14 09:56:30;;;;;;;5.07;3.13;;;19.50;78.90;27.40;100172.00;;;;5069574;28;20463;-75
2021/06/14 09:58:57;;;;;;;5.70;3.60;;;19.50;78.90;27.40;100180.00;;;;5070830;28;20442;-74
2021/06/14 10:01:30;;;;;;;5.57;3.80;;;19.50;78.90;27.50;100181.00;;;;5069898;28;20455;-75
2021/06/14 10:03:58;;;;;;;5.77;3.77;;;19.50;78.90;27.50;100173.00;;;;5070822;28;20918;-75
2021/06/14 10:06:30;;;;;;;5.60;3.60;;;19.50;78.90;27.40;100165.00;;;;5070070;28;20479;-75
2021/06/14 10:08:55;;;;;;;5.50;3.63;;;19.50;78.90;27.60;100171.00;;;;5070396;28;21127;-75
2021/06/14 10:11:21;;;;;;;6.33;4.07;;;19.50;78.90;27.40;100162.00;;;;5069966;28;20550;-75
2021/06/14 10:13:49;;;;;;;6.13;3.77;;;19.50;78.90;27.30;100167.00;;;;5069691;28;20555;-75
2021/06/14 10:16:21;;;;;;;5.67;3.70;;;19.50;78.90;27.30;100152.00;;;;5070066;28;20201;-75
2021/06/14 10:18:58;;;;;;;5.30;3.70;;;19.50;78.90;27.30;100152.00;;;;5069076;28;20515;-75
2021/06/14 10:21:36;;;;;;;5.30;3.20;;;19.60;79.00;27.50;100141.00;;;;5053428;28;20461;-75
2021/06/14 10:24:06;;;;;;;5.77;3.63;;;19.60;79.00;27.10;100152.00;;;;5052698;28;20451;-75
2021/06/14 10:26:33;;;;;;;5.40;3.33;;;19.50;78.90;27.30;100149.00;;;;5069571;28;20471;-75
2021/06/14 10:28:59;;;;;;;5.57;3.53;;;19.60;79.00;27.30;100152.00;;;;5052478;28;20969;-75
2021/06/14 10:31:25;;;;;;;5.47;3.13;;;19.50;78.90;27.40;100147.00;;;;5052630;28;20550;-75
2021/06/14 10:33:53;;;;;;;6.20;3.73;;;19.50;78.90;27.40;100136.00;;;;5068839;28;20173;-74
2021/06/14 10:36:22;;;;;;;5.30;3.70;;;19.60;79.00;27.50;100144.00;;;;5069281;28;20197;-75
2021/06/14 10:38:49;;;;;;;6.80;3.57;;;19.60;79.00;27.50;100134.00;;;;5068763;28;20526;-75
2021/06/14 10:41:15;;;;;;;5.10;3.50;;;19.60;79.10;27.40;100131.00;;;;5052833;28;20467;-75
2021/06/14 10:43:41;;;;;;;6.50;3.63;;;19.60;79.00;27.30;100123.00;;;;5068822;28;20926;-75
2021/06/14 10:46:10;;;;;;;5.53;3.47;;;19.60;79.10;27.40;100115.00;;;;5068768;28;20485;-75
2021/06/14 10:48:36;;;;;;;5.57;3.33;;;19.60;79.10;27.50;100135.00;;;;5068894;28;20439;-75
2021/06/14 10:51:10;;;;;;;6.77;3.73;;;19.60;79.10;27.40;100129.00;;;;5068785;28;20508;-75
2021/06/14 10:53:36;;;;;;;6.33;3.90;;;19.60;79.10;27.40;100130.00;;;;5068695;28;20183;-75